sensor_id;sensor_type;location;lat;lon;timestamp;P1;durP1;ratioP1;P2;durP2;ratioP2
64208;SDS011;50527;52.414;13.226;2022-08-24T00:02:19;3.45;;;1.17;;
64208;SDS011;50527;52.414;13.226;2022-08-24T00:04:45;4.63;;;1.52;;
64208;SDS011;50527;52.414;13.226;2022-08-24T00:07:11;4.10;;;1.50;;
64208;SDS011;50527;52.414;13.226;2022-08-24T00:09:38;3.13;;;1.30;;
64208;SDS011;50527;52.414;13.226;2022-08-24T00:12:04;2.58;;;1.00;;
64208;SDS011;50527;52.414;13.226;2022-08-24T00:14:29;4.05;;;1.10;;
64208;SDS011;50527;52.414;13.226;2022-08-24T00:16:55;2.67;;;1.10;;
64208;SDS011;50527;52.414;13.226;2022-08-24T00:19:22;3.92;;;1.10;;
64208;SDS011;50527;52.414;13.226;2022-08-24T00:21:47;1.83;;;1.05;;
64208;SDS011;50527;52.414;13.226;2022-08-24T00:24:13;3.22;;;0.90;;
64208;SDS011;50527;52.414;13.226;2022-08-24T00:26:39;2.65;;;1.02;;
64208;SDS011;50527;52.414;13.226;2022-08-24T00:29:04;3.53;;;1.10;;
64208;SDS011;50527;52.414;13.226;2022-08-24T00:31:30;2.95;;;1.10;;
64208;SDS011;50527;52.414;13.226;2022-08-24T00:33:55;7.28;;;1.30;;
64208;SDS011;50527;52.414;13.226;2022-08-24T00:36:22;3.95;;;1.00;;
64208;SDS011;50527;52.414;13.226;2022-08-24T00:38:48;3.20;;;1.08;;
64208;SDS011;50527;52.414;13.226;2022-08-24T00:41:14;3.13;;;0.90;;
64208;SDS011;50527;52.414;13.226;2022-08-24T00:44:00;6.63;;;1.27;;
64208;SDS011;50527;52.414;13.226;2022-08-24T00:46:37;2.53;;;1.00;;
64208;SDS011;50527;52.414;13.226;2022-08-24T00:49:12;2.05;;;1.00;;
64208;SDS011;50527;52.414;13.226;2022-08-24T00:51:43;3.95;;;1.10;;
64208;SDS011;50527;52.414;13.226;2022-08-24T00:54:15;2.38;;;1.08;;
64208;SDS011;50527;52.414;13.226;2022-08-24T00:56:44;3.75;;;1.17;;
64208;SDS011;50527;52.414;13.226;2022-08-24T00:59:17;2.97;;;0.93;;
64208;SDS011;50527;52.414;13.226;2022-08-24T01:01:48;3.35;;;1.00;;
64208;SDS011;50527;52.414;13.226;2022-08-24T01:04:19;3.95;;;0.98;;
64208;SDS011;50527;52.414;13.226;2022-08-24T01:06:50;3.10;;;1.10;;
64208;SDS011;50527;52.414;13.226;2022-08-24T01:09:16;4.45;;;1.10;;
64208;SDS011;50527;52.414;13.226;2022-08-24T01:11:41;3.47;;;1.15;;
64208;SDS011;50527;52.414;13.226;2022-08-24T01:14:07;1.55;;;0.88;;
64208;SDS011;50527;52.414;13.226;2022-08-24T01:16:33;2.58;;;1.00;;
64208;SDS011;50527;52.414;13.226;2022-08-24T01:21:55;1.85;;;0.90;;
64208;SDS011;50527;52.414;13.226;2022-08-24T01:24:38;4.07;;;1.00;;
64208;SDS011;50527;52.414;13.226;2022-08-24T01:27:06;3.95;;;1.20;;
64208;SDS011;50527;52.414;13.226;2022-08-24T01:29:34;2.08;;;1.00;;
64208;SDS011;50527;52.414;13.226;2022-08-24T01:32:01;1.70;;;0.90;;
64208;SDS011;50527;52.414;13.226;2022-08-24T01:34:27;4.55;;;1.08;;
64208;SDS011;50527;52.414;13.226;2022-08-24T01:36:53;2.70;;;1.10;;
64208;SDS011;50527;52.414;13.226;2022-08-24T01:39:30;3.03;;;1.10;;
64208;SDS011;50527;52.414;13.226;2022-08-24T01:42:08;3.83;;;0.95;;
64208;SDS011;50527;52.414;13.226;2022-08-24T01:44:34;2.63;;;1.00;;
64208;SDS011;50527;52.414;13.226;2022-08-24T01:47:02;2.67;;;1.10;;
64208;SDS011;50527;52.414;13.226;2022-08-24T01:49:30;3.55;;;1.05;;
64208;SDS011;50527;52.414;13.226;2022-08-24T01:51:58;3.03;;;1.10;;
64208;SDS011;50527;52.414;13.226;2022-08-24T01:54:24;3.50;;;0.90;;
64208;SDS011;50527;52.414;13.226;2022-08-24T01:56:50;3.33;;;0.80;;
64208;SDS011;50527;52.414;13.226;2022-08-24T01:59:16;5.60;;;1.10;;
64208;SDS011;50527;52.414;13.226;2022-08-24T02:01:44;1.48;;;0.90;;
64208;SDS011;50527;52.414;13.226;2022-08-24T02:04:12;2.60;;;1.00;;
64208;SDS011;50527;52.414;13.226;2022-08-24T02:06:37;2.15;;;1.08;;
64208;SDS011;50527;52.414;13.226;2022-08-24T02:09:03;3.15;;;1.05;;
64208;SDS011;50527;52.414;13.226;2022-08-24T02:11:30;2.00;;;1.00;;
64208;SDS011;50527;52.414;13.226;2022-08-24T02:13:56;3.58;;;0.90;;
64208;SDS011;50527;52.414;13.226;2022-08-24T02:16:22;1.67;;;0.80;;
64208;SDS011;50527;52.414;13.226;2022-08-24T02:18:48;2.67;;;1.05;;
64208;SDS011;50527;52.414;13.226;2022-08-24T02:21:13;1.88;;;0.90;;
64208;SDS011;50527;52.414;13.226;2022-08-24T02:23:40;3.22;;;0.98;;
64208;SDS011;50527;52.414;13.226;2022-08-24T02:26:07;3.30;;;1.00;;
64208;SDS011;50527;52.414;13.226;2022-08-24T02:28:34;3.85;;;1.00;;
64208;SDS011;50527;52.414;13.226;2022-08-24T02:31:01;3.55;;;1.00;;
64208;SDS011;50527;52.414;13.226;2022-08-24T02:33:29;3.00;;;1.30;;
64208;SDS011;50527;52.414;13.226;2022-08-24T02:35:56;3.58;;;1.10;;
64208;SDS011;50527;52.414;13.226;2022-08-24T02:38:21;4.95;;;0.98;;
64208;SDS011;50527;52.414;13.226;2022-08-24T02:40:47;3.97;;;1.10;;
64208;SDS011;50527;52.414;13.226;2022-08-24T02:43:13;4.15;;;0.90;;
64208;SDS011;50527;52.414;13.226;2022-08-24T02:45:40;2.85;;;1.17;;
64208;SDS011;50527;52.414;13.226;2022-08-24T02:48:07;2.88;;;0.90;;
64208;SDS011;50527;52.414;13.226;2022-08-24T02:50:36;3.13;;;1.00;;
64208;SDS011;50527;52.414;13.226;2022-08-24T02:53:06;2.35;;;0.90;;
64208;SDS011;50527;52.414;13.226;2022-08-24T02:55:33;2.80;;;0.95;;
64208;SDS011;50527;52.414;13.226;2022-08-24T02:57:59;2.92;;;1.20;;
64208;SDS011;50527;52.414;13.226;2022-08-24T03:00:25;2.35;;;1.10;;
64208;SDS011;50527;52.414;13.226;2022-08-24T03:02:52;4.65;;;1.10;;
64208;SDS011;50527;52.414;13.226;2022-08-24T03:05:18;3.38;;;1.17;;
64208;SDS011;50527;52.414;13.226;2022-08-24T03:07:45;2.08;;;1.08;;
64208;SDS011;50527;52.414;13.226;2022-08-24T03:10:11;2.40;;;0.93;;
64208;SDS011;50527;52.414;13.226;2022-08-24T03:12:36;1.73;;;1.00;;
64208;SDS011;50527;52.414;13.226;2022-08-24T03:15:03;1.55;;;0.90;;
64208;SDS011;50527;52.414;13.226;2022-08-24T03:17:31;2.72;;;1.13;;
64208;SDS011;50527;52.414;13.226;2022-08-24T03:19:57;1.42;;;0.90;;
64208;SDS011;50527;52.414;13.226;2022-08-24T03:22:24;2.75;;;1.08;;
64208;SDS011;50527;52.414;13.226;2022-08-24T03:24:50;3.78;;;1.23;;
64208;SDS011;50527;52.414;13.226;2022-08-24T03:27:16;4.05;;;1.05;;
64208;SDS011;50527;52.414;13.226;2022-08-24T03:29:42;1.85;;;1.05;;
64208;SDS011;50527;52.414;13.226;2022-08-24T03:32:08;2.35;;;0.90;;
64208;SDS011;50527;52.414;13.226;2022-08-24T03:34:34;2.78;;;1.15;;
64208;SDS011;50527;52.414;13.226;2022-08-24T03:37:00;2.97;;;1.17;;
64208;SDS011;50527;52.414;13.226;2022-08-24T03:39:26;1.77;;;0.90;;
64208;SDS011;50527;52.414;13.226;2022-08-24T03:41:51;4.60;;;1.10;;
64208;SDS011;50527;52.414;13.226;2022-08-24T03:44:17;3.53;;;1.20;;
64208;SDS011;50527;52.414;13.226;2022-08-24T03:46:42;3.75;;;1.20;;
64208;SDS011;50527;52.414;13.226;2022-08-24T03:49:09;2.80;;;1.10;;
64208;SDS011;50527;52.414;13.226;2022-08-24T03:51:34;5.35;;;1.40;;
64208;SDS011;50527;52.414;13.226;2022-08-24T03:54:02;6.68;;;1.27;;
64208;SDS011;50527;52.414;13.226;2022-08-24T03:56:29;7.30;;;1.60;;
64208;SDS011;50527;52.414;13.226;2022-08-24T03:58:55;13.10;;;2.15;;
64208;SDS011;50527;52.414;13.226;2022-08-24T04:01:21;10.05;;;1.70;;
64208;SDS011;50527;52.414;13.226;2022-08-24T04:03:47;11.30;;;1.63;;
64208;SDS011;50527;52.414;13.226;2022-08-24T04:06:13;13.52;;;2.20;;
64208;SDS011;50527;52.414;13.226;2022-08-24T04:08:40;12.95;;;2.28;;
64208;SDS011;50527;52.414;13.226;2022-08-24T04:11:14;16.02;;;2.72;;
64208;SDS011;50527;52.414;13.226;2022-08-24T04:13:45;16.30;;;2.53;;
64208;SDS011;50527;52.414;13.226;2022-08-24T04:16:12;16.15;;;2.80;;
64208;SDS011;50527;52.414;13.226;2022-08-24T04:18:40;36.75;;;3.72;;
64208;SDS011;50527;52.414;13.226;2022-08-24T04:21:06;19.85;;;3.33;;
64208;SDS011;50527;52.414;13.226;2022-08-24T04:23:42;18.83;;;3.63;;
64208;SDS011;50527;52.414;13.226;2022-08-24T04:26:07;19.25;;;3.70;;
64208;SDS011;50527;52.414;13.226;2022-08-24T04:28:33;14.75;;;3.55;;
64208;SDS011;50527;52.414;13.226;2022-08-24T04:30:58;14.25;;;3.17;;
64208;SDS011;50527;52.414;13.226;2022-08-24T04:33:24;17.70;;;4.00;;
64208;SDS011;50527;52.414;13.226;2022-08-24T04:35:50;16.63;;;3.95;;
64208;SDS011;50527;52.414;13.226;2022-08-24T04:38:16;15.23;;;3.75;;
64208;SDS011;50527;52.414;13.226;2022-08-24T04:40:43;16.75;;;3.60;;
64208;SDS011;50527;52.414;13.226;2022-08-24T04:43:11;16.08;;;3.90;;
64208;SDS011;50527;52.414;13.226;2022-08-24T04:45:39;19.83;;;4.15;;
64208;SDS011;50527;52.414;13.226;2022-08-24T04:48:06;18.67;;;3.33;;
64208;SDS011;50527;52.414;13.226;2022-08-24T04:50:35;15.48;;;3.90;;
64208;SDS011;50527;52.414;13.226;2022-08-24T04:53:02;17.02;;;3.53;;
64208;SDS011;50527;52.414;13.226;2022-08-24T04:55:29;13.73;;;3.50;;
64208;SDS011;50527;52.414;13.226;2022-08-24T04:57:56;16.67;;;4.10;;
64208;SDS011;50527;52.414;13.226;2022-08-24T05:00:21;39.38;;;4.70;;
64208;SDS011;50527;52.414;13.226;2022-08-24T05:02:47;16.40;;;4.00;;
64208;SDS011;50527;52.414;13.226;2022-08-24T05:05:13;35.20;;;5.38;;
64208;SDS011;50527;52.414;13.226;2022-08-24T05:07:39;17.38;;;4.03;;
64208;SDS011;50527;52.414;13.226;2022-08-24T05:10:05;18.92;;;4.30;;
64208;SDS011;50527;52.414;13.226;2022-08-24T05:12:32;13.55;;;3.47;;
64208;SDS011;50527;52.414;13.226;2022-08-24T05:14:58;16.27;;;3.80;;
64208;SDS011;50527;52.414;13.226;2022-08-24T05:17:24;13.60;;;3.72;;
64208;SDS011;50527;52.414;13.226;2022-08-24T05:19:50;14.57;;;4.03;;
64208;SDS011;50527;52.414;13.226;2022-08-24T05:22:16;17.70;;;4.10;;
64208;SDS011;50527;52.414;13.226;2022-08-24T05:24:42;15.68;;;4.10;;
64208;SDS011;50527;52.414;13.226;2022-08-24T05:27:07;16.33;;;3.85;;
64208;SDS011;50527;52.414;13.226;2022-08-24T05:29:33;22.88;;;3.67;;
64208;SDS011;50527;52.414;13.226;2022-08-24T05:31:59;16.48;;;3.83;;
64208;SDS011;50527;52.414;13.226;2022-08-24T05:34:24;14.75;;;4.30;;
64208;SDS011;50527;52.414;13.226;2022-08-24T05:36:50;12.68;;;3.88;;
64208;SDS011;50527;52.414;13.226;2022-08-24T05:39:16;13.88;;;3.95;;
64208;SDS011;50527;52.414;13.226;2022-08-24T05:41:42;14.20;;;3.47;;
64208;SDS011;50527;52.414;13.226;2022-08-24T05:44:09;22.75;;;3.90;;
64208;SDS011;50527;52.414;13.226;2022-08-24T05:46:35;15.75;;;3.97;;
64208;SDS011;50527;52.414;13.226;2022-08-24T05:49:01;17.70;;;3.72;;
64208;SDS011;50527;52.414;13.226;2022-08-24T05:51:26;9.70;;;3.83;;
64208;SDS011;50527;52.414;13.226;2022-08-24T05:53:53;11.63;;;3.83;;
64208;SDS011;50527;52.414;13.226;2022-08-24T05:56:20;41.70;;;4.18;;
64208;SDS011;50527;52.414;13.226;2022-08-24T05:58:46;12.80;;;3.97;;
64208;SDS011;50527;52.414;13.226;2022-08-24T06:01:13;11.82;;;3.88;;
64208;SDS011;50527;52.414;13.226;2022-08-24T06:03:45;34.60;;;4.03;;
64208;SDS011;50527;52.414;13.226;2022-08-24T06:06:11;12.95;;;3.97;;
64208;SDS011;50527;52.414;13.226;2022-08-24T06:08:38;12.10;;;3.80;;
64208;SDS011;50527;52.414;13.226;2022-08-24T06:11:05;14.90;;;4.00;;
64208;SDS011;50527;52.414;13.226;2022-08-24T06:13:31;10.75;;;4.03;;
64208;SDS011;50527;52.414;13.226;2022-08-24T06:16:01;9.02;;;3.67;;
64208;SDS011;50527;52.414;13.226;2022-08-24T06:18:31;9.43;;;3.85;;
64208;SDS011;50527;52.414;13.226;2022-08-24T06:20:57;11.90;;;4.28;;
64208;SDS011;50527;52.414;13.226;2022-08-24T06:23:22;11.95;;;4.28;;
64208;SDS011;50527;52.414;13.226;2022-08-24T06:25:48;23.23;;;4.18;;
64208;SDS011;50527;52.414;13.226;2022-08-24T06:28:32;10.82;;;4.05;;
64208;SDS011;50527;52.414;13.226;2022-08-24T06:31:02;13.23;;;4.30;;
64208;SDS011;50527;52.414;13.226;2022-08-24T06:33:29;10.90;;;4.30;;
64208;SDS011;50527;52.414;13.226;2022-08-24T06:35:54;13.75;;;4.05;;
64208;SDS011;50527;52.414;13.226;2022-08-24T06:38:20;11.52;;;4.72;;
64208;SDS011;50527;52.414;13.226;2022-08-24T06:40:45;12.60;;;4.85;;
64208;SDS011;50527;52.414;13.226;2022-08-24T06:43:11;11.73;;;4.40;;
64208;SDS011;50527;52.414;13.226;2022-08-24T06:45:36;11.20;;;4.43;;
64208;SDS011;50527;52.414;13.226;2022-08-24T06:48:05;10.48;;;4.30;;
64208;SDS011;50527;52.414;13.226;2022-08-24T06:50:30;12.93;;;4.80;;
64208;SDS011;50527;52.414;13.226;2022-08-24T06:52:56;11.10;;;4.78;;
64208;SDS011;50527;52.414;13.226;2022-08-24T06:55:21;12.63;;;4.97;;
64208;SDS011;50527;52.414;13.226;2022-08-24T06:57:47;9.55;;;4.10;;
64208;SDS011;50527;52.414;13.226;2022-08-24T07:00:12;10.07;;;4.85;;
64208;SDS011;50527;52.414;13.226;2022-08-24T07:02:38;9.57;;;4.07;;
64208;SDS011;50527;52.414;13.226;2022-08-24T07:05:05;10.15;;;4.57;;
64208;SDS011;50527;52.414;13.226;2022-08-24T07:07:30;11.18;;;4.60;;
64208;SDS011;50527;52.414;13.226;2022-08-24T07:09:56;9.93;;;4.18;;
64208;SDS011;50527;52.414;13.226;2022-08-24T07:12:24;12.55;;;4.45;;
64208;SDS011;50527;52.414;13.226;2022-08-24T07:14:50;10.05;;;4.32;;
64208;SDS011;50527;52.414;13.226;2022-08-24T07:17:16;11.13;;;4.70;;
64208;SDS011;50527;52.414;13.226;2022-08-24T07:19:43;11.70;;;4.47;;
64208;SDS011;50527;52.414;13.226;2022-08-24T07:22:10;11.95;;;4.70;;
64208;SDS011;50527;52.414;13.226;2022-08-24T07:24:36;10.95;;;4.78;;
64208;SDS011;50527;52.414;13.226;2022-08-24T07:27:02;11.00;;;4.53;;
64208;SDS011;50527;52.414;13.226;2022-08-24T07:29:28;10.32;;;4.50;;
64208;SDS011;50527;52.414;13.226;2022-08-24T07:31:53;13.13;;;4.85;;
64208;SDS011;50527;52.414;13.226;2022-08-24T07:34:18;10.65;;;5.00;;
64208;SDS011;50527;52.414;13.226;2022-08-24T07:36:44;12.10;;;5.00;;
64208;SDS011;50527;52.414;13.226;2022-08-24T07:39:09;12.75;;;5.40;;
64208;SDS011;50527;52.414;13.226;2022-08-24T07:41:39;13.52;;;5.18;;
64208;SDS011;50527;52.414;13.226;2022-08-24T07:44:07;12.77;;;5.15;;
64208;SDS011;50527;52.414;13.226;2022-08-24T07:46:33;10.50;;;4.78;;
64208;SDS011;50527;52.414;13.226;2022-08-24T07:48:58;11.55;;;5.20;;
64208;SDS011;50527;52.414;13.226;2022-08-24T07:51:24;12.55;;;5.38;;
64208;SDS011;50527;52.414;13.226;2022-08-24T07:53:51;11.57;;;4.88;;
64208;SDS011;50527;52.414;13.226;2022-08-24T07:56:16;12.57;;;5.20;;
64208;SDS011;50527;52.414;13.226;2022-08-24T07:58:42;16.38;;;4.93;;
64208;SDS011;50527;52.414;13.226;2022-08-24T08:01:08;12.93;;;5.03;;
64208;SDS011;50527;52.414;13.226;2022-08-24T08:03:34;12.32;;;4.65;;
64208;SDS011;50527;52.414;13.226;2022-08-24T08:06:02;13.90;;;5.03;;
64208;SDS011;50527;52.414;13.226;2022-08-24T08:08:29;12.43;;;4.82;;
64208;SDS011;50527;52.414;13.226;2022-08-24T08:10:56;13.05;;;4.38;;
64208;SDS011;50527;52.414;13.226;2022-08-24T08:13:22;11.63;;;4.85;;
64208;SDS011;50527;52.414;13.226;2022-08-24T08:15:48;12.30;;;4.70;;
64208;SDS011;50527;52.414;13.226;2022-08-24T08:18:14;14.40;;;4.45;;
64208;SDS011;50527;52.414;13.226;2022-08-24T08:20:42;12.77;;;4.40;;
64208;SDS011;50527;52.414;13.226;2022-08-24T08:23:08;11.88;;;4.65;;
64208;SDS011;50527;52.414;13.226;2022-08-24T08:25:53;11.88;;;4.40;;
64208;SDS011;50527;52.414;13.226;2022-08-24T08:28:21;10.07;;;4.22;;
64208;SDS011;50527;52.414;13.226;2022-08-24T08:30:47;9.60;;;4.43;;
64208;SDS011;50527;52.414;13.226;2022-08-24T08:33:13;10.10;;;4.00;;
64208;SDS011;50527;52.414;13.226;2022-08-24T08:35:38;11.10;;;4.10;;
64208;SDS011;50527;52.414;13.226;2022-08-24T08:38:05;11.85;;;4.20;;
64208;SDS011;50527;52.414;13.226;2022-08-24T08:43:12;10.52;;;3.80;;
64208;SDS011;50527;52.414;13.226;2022-08-24T08:48:49;9.75;;;3.85;;
64208;SDS011;50527;52.414;13.226;2022-08-24T09:00:23;8.82;;;3.67;;
64208;SDS011;50527;52.414;13.226;2022-08-24T09:03:17;10.88;;;3.88;;
64208;SDS011;50527;52.414;13.226;2022-08-24T09:06:25;11.43;;;3.53;;
64208;SDS011;50527;52.414;13.226;2022-08-24T09:09:10;11.68;;;3.97;;
64208;SDS011;50527;52.414;13.226;2022-08-24T09:12:02;9.27;;;4.32;;
64208;SDS011;50527;52.414;13.226;2022-08-24T09:15:03;9.23;;;3.60;;
64208;SDS011;50527;52.414;13.226;2022-08-24T09:23:08;8.60;;;3.67;;
64208;SDS011;50527;52.414;13.226;2022-08-24T09:25:50;7.78;;;3.30;;
64208;SDS011;50527;52.414;13.226;2022-08-24T09:28:41;9.65;;;3.67;;
64208;SDS011;50527;52.414;13.226;2022-08-24T09:31:20;7.47;;;2.90;;
64208;SDS011;50527;52.414;13.226;2022-08-24T09:36:40;7.82;;;3.30;;
64208;SDS011;50527;52.414;13.226;2022-08-24T09:39:31;11.65;;;3.40;;
64208;SDS011;50527;52.414;13.226;2022-08-24T09:45:47;7.40;;;2.72;;
64208;SDS011;50527;52.414;13.226;2022-08-24T09:48:33;6.55;;;2.70;;
64208;SDS011;50527;52.414;13.226;2022-08-24T09:54:15;8.77;;;3.05;;
64208;SDS011;50527;52.414;13.226;2022-08-24T09:59:44;9.57;;;2.95;;
64208;SDS011;50527;52.414;13.226;2022-08-24T10:05:41;9.57;;;3.55;;
64208;SDS011;50527;52.414;13.226;2022-08-24T10:11:44;7.15;;;2.63;;
64208;SDS011;50527;52.414;13.226;2022-08-24T10:20:08;4.18;;;2.25;;
64208;SDS011;50527;52.414;13.226;2022-08-24T10:25:49;5.70;;;1.95;;
64208;SDS011;50527;52.414;13.226;2022-08-24T10:31:18;6.15;;;1.80;;
64208;SDS011;50527;52.414;13.226;2022-08-24T10:39:55;5.47;;;2.20;;
64208;SDS011;50527;52.414;13.226;2022-08-24T10:42:52;5.90;;;2.15;;
64208;SDS011;50527;52.414;13.226;2022-08-24T10:51:25;5.60;;;2.22;;
64208;SDS011;50527;52.414;13.226;2022-08-24T10:53:53;9.45;;;2.65;;
64208;SDS011;50527;52.414;13.226;2022-08-24T10:56:26;7.50;;;2.28;;
64208;SDS011;50527;52.414;13.226;2022-08-24T10:59:14;7.55;;;2.30;;
64208;SDS011;50527;52.414;13.226;2022-08-24T11:02:02;7.82;;;2.10;;
64208;SDS011;50527;52.414;13.226;2022-08-24T11:04:29;8.60;;;2.45;;
64208;SDS011;50527;52.414;13.226;2022-08-24T11:07:08;7.78;;;2.65;;
64208;SDS011;50527;52.414;13.226;2022-08-24T11:09:49;6.75;;;2.25;;
64208;SDS011;50527;52.414;13.226;2022-08-24T11:12:21;7.03;;;2.63;;
64208;SDS011;50527;52.414;13.226;2022-08-24T11:15:02;5.57;;;2.03;;
64208;SDS011;50527;52.414;13.226;2022-08-24T11:17:56;7.25;;;2.10;;
64208;SDS011;50527;52.414;13.226;2022-08-24T11:20:41;7.18;;;2.30;;
64208;SDS011;50527;52.414;13.226;2022-08-24T11:23:09;7.45;;;2.17;;
64208;SDS011;50527;52.414;13.226;2022-08-24T11:25:52;6.85;;;2.05;;
64208;SDS011;50527;52.414;13.226;2022-08-24T11:28:24;4.95;;;1.60;;
64208;SDS011;50527;52.414;13.226;2022-08-24T11:31:02;7.20;;;1.98;;
64208;SDS011;50527;52.414;13.226;2022-08-24T11:35:59;5.15;;;2.10;;
64208;SDS011;50527;52.414;13.226;2022-08-24T11:38:27;6.85;;;2.10;;
64208;SDS011;50527;52.414;13.226;2022-08-24T11:46:51;8.50;;;2.03;;
64208;SDS011;50527;52.414;13.226;2022-08-24T11:55:04;6.82;;;2.55;;
64208;SDS011;50527;52.414;13.226;2022-08-24T11:57:36;8.45;;;2.70;;
64208;SDS011;50527;52.414;13.226;2022-08-24T12:00:12;9.98;;;3.00;;
64208;SDS011;50527;52.414;13.226;2022-08-24T12:03:02;8.67;;;2.53;;
64208;SDS011;50527;52.414;13.226;2022-08-24T12:05:50;5.57;;;2.60;;
64208;SDS011;50527;52.414;13.226;2022-08-24T12:10:58;7.97;;;2.70;;
64208;SDS011;50527;52.414;13.226;2022-08-24T12:14:00;5.95;;;2.47;;
64208;SDS011;50527;52.414;13.226;2022-08-24T12:19:48;10.82;;;2.65;;
64208;SDS011;50527;52.414;13.226;2022-08-24T12:22:18;9.43;;;2.50;;
64208;SDS011;50527;52.414;13.226;2022-08-24T12:24:48;6.10;;;2.30;;
64208;SDS011;50527;52.414;13.226;2022-08-24T12:27:34;7.85;;;2.50;;
64208;SDS011;50527;52.414;13.226;2022-08-24T12:32:41;6.45;;;2.35;;
64208;SDS011;50527;52.414;13.226;2022-08-24T12:37:37;5.57;;;2.42;;
64208;SDS011;50527;52.414;13.226;2022-08-24T12:43:01;5.00;;;2.13;;
64208;SDS011;50527;52.414;13.226;2022-08-24T12:45:30;6.65;;;2.25;;
64208;SDS011;50527;52.414;13.226;2022-08-24T12:47:59;4.93;;;2.35;;
64208;SDS011;50527;52.414;13.226;2022-08-24T12:56:16;6.38;;;1.95;;
64208;SDS011;50527;52.414;13.226;2022-08-24T12:59:20;6.70;;;2.47;;
64208;SDS011;50527;52.414;13.226;2022-08-24T13:02:06;6.07;;;1.75;;
64208;SDS011;50527;52.414;13.226;2022-08-24T13:09:44;6.68;;;2.45;;
64208;SDS011;50527;52.414;13.226;2022-08-24T13:15:24;6.85;;;2.00;;
64208;SDS011;50527;52.414;13.226;2022-08-24T13:20:52;6.50;;;1.90;;
64208;SDS011;50527;52.414;13.226;2022-08-24T13:23:22;6.68;;;1.92;;
64208;SDS011;50527;52.414;13.226;2022-08-24T13:25:56;5.07;;;1.85;;
64208;SDS011;50527;52.414;13.226;2022-08-24T13:28:38;4.45;;;1.85;;
64208;SDS011;50527;52.414;13.226;2022-08-24T13:31:22;5.32;;;2.00;;
64208;SDS011;50527;52.414;13.226;2022-08-24T13:52:29;8.48;;;1.90;;
64208;SDS011;50527;52.414;13.226;2022-08-24T14:08:35;6.15;;;2.03;;
64208;SDS011;50527;52.414;13.226;2022-08-24T14:11:35;4.88;;;2.13;;
64208;SDS011;50527;52.414;13.226;2022-08-24T14:22:29;5.85;;;1.80;;
64208;SDS011;50527;52.414;13.226;2022-08-24T14:25:18;2.40;;;1.60;;
64208;SDS011;50527;52.414;13.226;2022-08-24T14:27:50;3.22;;;1.60;;
64208;SDS011;50527;52.414;13.226;2022-08-24T14:33:07;9.38;;;1.92;;
64208;SDS011;50527;52.414;13.226;2022-08-24T14:52:16;3.95;;;1.75;;
64208;SDS011;50527;52.414;13.226;2022-08-24T14:55:01;5.70;;;1.90;;
64208;SDS011;50527;52.414;13.226;2022-08-24T14:58:06;8.98;;;1.83;;
64208;SDS011;50527;52.414;13.226;2022-08-24T15:03:50;7.78;;;1.63;;
64208;SDS011;50527;52.414;13.226;2022-08-24T15:06:36;5.55;;;1.88;;
64208;SDS011;50527;52.414;13.226;2022-08-24T15:09:24;4.88;;;1.80;;
64208;SDS011;50527;52.414;13.226;2022-08-24T15:15:04;6.20;;;1.58;;
64208;SDS011;50527;52.414;13.226;2022-08-24T15:17:46;4.45;;;1.80;;
64208;SDS011;50527;52.414;13.226;2022-08-24T15:23:24;3.22;;;1.50;;
64208;SDS011;50527;52.414;13.226;2022-08-24T15:26:05;4.45;;;1.35;;
64208;SDS011;50527;52.414;13.226;2022-08-24T15:28:35;4.82;;;1.50;;
64208;SDS011;50527;52.414;13.226;2022-08-24T15:31:05;4.22;;;1.52;;
64208;SDS011;50527;52.414;13.226;2022-08-24T15:33:34;4.90;;;2.10;;
64208;SDS011;50527;52.414;13.226;2022-08-24T15:36:21;5.32;;;1.80;;
64208;SDS011;50527;52.414;13.226;2022-08-24T15:38:47;10.95;;;1.63;;
64208;SDS011;50527;52.414;13.226;2022-08-24T15:43:56;5.70;;;1.63;;
64208;SDS011;50527;52.414;13.226;2022-08-24T15:46:26;4.35;;;1.70;;
64208;SDS011;50527;52.414;13.226;2022-08-24T15:49:00;5.13;;;1.70;;
64208;SDS011;50527;52.414;13.226;2022-08-24T15:51:31;8.85;;;1.80;;
64208;SDS011;50527;52.414;13.226;2022-08-24T15:53:57;5.90;;;1.90;;
64208;SDS011;50527;52.414;13.226;2022-08-24T15:56:45;6.10;;;1.80;;
64208;SDS011;50527;52.414;13.226;2022-08-24T15:59:13;7.78;;;1.50;;
64208;SDS011;50527;52.414;13.226;2022-08-24T16:01:58;5.60;;;1.52;;
64208;SDS011;50527;52.414;13.226;2022-08-24T16:07:30;5.27;;;1.60;;
64208;SDS011;50527;52.414;13.226;2022-08-24T16:10:11;5.45;;;1.35;;
64208;SDS011;50527;52.414;13.226;2022-08-24T16:12:36;7.07;;;1.55;;
64208;SDS011;50527;52.414;13.226;2022-08-24T16:15:11;4.88;;;1.67;;
64208;SDS011;50527;52.414;13.226;2022-08-24T16:17:45;5.15;;;1.80;;
64208;SDS011;50527;52.414;13.226;2022-08-24T16:22:51;7.78;;;1.52;;
64208;SDS011;50527;52.414;13.226;2022-08-24T16:25:25;4.78;;;1.70;;
64208;SDS011;50527;52.414;13.226;2022-08-24T16:27:54;4.22;;;1.60;;
64208;SDS011;50527;52.414;13.226;2022-08-24T16:31:02;3.40;;;1.20;;
64208;SDS011;50527;52.414;13.226;2022-08-24T16:33:36;8.40;;;1.48;;
64208;SDS011;50527;52.414;13.226;2022-08-24T16:36:09;6.88;;;1.63;;
64208;SDS011;50527;52.414;13.226;2022-08-24T16:38:38;9.57;;;1.30;;
64208;SDS011;50527;52.414;13.226;2022-08-24T16:41:08;6.97;;;1.33;;
64208;SDS011;50527;52.414;13.226;2022-08-24T16:43:36;4.07;;;1.35;;
64208;SDS011;50527;52.414;13.226;2022-08-24T16:46:05;10.35;;;1.70;;
64208;SDS011;50527;52.414;13.226;2022-08-24T16:48:35;7.05;;;1.40;;
64208;SDS011;50527;52.414;13.226;2022-08-24T16:51:03;5.03;;;1.50;;
64208;SDS011;50527;52.414;13.226;2022-08-24T16:53:38;5.65;;;1.35;;
64208;SDS011;50527;52.414;13.226;2022-08-24T16:56:13;4.25;;;1.25;;
64208;SDS011;50527;52.414;13.226;2022-08-24T16:58:39;6.50;;;1.77;;
64208;SDS011;50527;52.414;13.226;2022-08-24T17:01:08;8.60;;;1.85;;
64208;SDS011;50527;52.414;13.226;2022-08-24T17:06:06;3.90;;;1.30;;
64208;SDS011;50527;52.414;13.226;2022-08-24T17:08:36;8.18;;;1.70;;
64208;SDS011;50527;52.414;13.226;2022-08-24T17:11:02;4.63;;;1.38;;
64208;SDS011;50527;52.414;13.226;2022-08-24T17:13:28;7.45;;;1.52;;
64208;SDS011;50527;52.414;13.226;2022-08-24T17:15:54;4.15;;;1.27;;
64208;SDS011;50527;52.414;13.226;2022-08-24T17:18:20;3.75;;;1.40;;
64208;SDS011;50527;52.414;13.226;2022-08-24T17:20:46;8.70;;;1.33;;
64208;SDS011;50527;52.414;13.226;2022-08-24T17:23:11;2.80;;;1.10;;
64208;SDS011;50527;52.414;13.226;2022-08-24T17:25:37;5.30;;;1.10;;
64208;SDS011;50527;52.414;13.226;2022-08-24T17:28:04;8.98;;;1.65;;
64208;SDS011;50527;52.414;13.226;2022-08-24T17:30:30;5.97;;;1.70;;
64208;SDS011;50527;52.414;13.226;2022-08-24T17:32:55;8.70;;;1.70;;
64208;SDS011;50527;52.414;13.226;2022-08-24T17:35:21;6.55;;;1.52;;
64208;SDS011;50527;52.414;13.226;2022-08-24T17:37:47;6.57;;;1.40;;
64208;SDS011;50527;52.414;13.226;2022-08-24T17:40:17;3.90;;;1.27;;
64208;SDS011;50527;52.414;13.226;2022-08-24T17:42:44;8.52;;;1.70;;
64208;SDS011;50527;52.414;13.226;2022-08-24T17:45:10;8.25;;;1.23;;
64208;SDS011;50527;52.414;13.226;2022-08-24T17:47:37;3.03;;;1.38;;
64208;SDS011;50527;52.414;13.226;2022-08-24T17:50:03;3.47;;;1.60;;
64208;SDS011;50527;52.414;13.226;2022-08-24T17:52:29;7.22;;;1.50;;
64208;SDS011;50527;52.414;13.226;2022-08-24T17:54:55;5.47;;;1.48;;
64208;SDS011;50527;52.414;13.226;2022-08-24T17:57:21;6.78;;;1.40;;
64208;SDS011;50527;52.414;13.226;2022-08-24T17:59:50;7.03;;;1.58;;
64208;SDS011;50527;52.414;13.226;2022-08-24T18:02:16;8.82;;;1.30;;